Huvudsida
METAR-TAF:

METAR-TAF

Flygplatser :

Mosjøen, Norge

Mosjøens flygplats. Kjærstad

latitud: 65-48N, longitud: 013-08E, höjd: 70 m

Aktuellt väderrapport

Denna rapport gjordes för 35 minuter sedan, klockan 17:50 UTC
Vind 5 kt från nordväst
Temperatur 6°C
Fuktighet 75%
Tryck 1011 hPa
Sikt 10 km eller mer
Få moln på en höjd av 3400 ft

METAR: ENMS 221750Z 32005KT 9999 FEW034 06/02 Q1011 RMK WIND 412FT 33003KT

Tid: 20:25 (18:25 UTC)


TAF: saknas

Aktuella väderrapporter och prognoser från 4000 flygplatser (METAR- och TAF-rapporter).

De tillgängliga stationerna syns som gula och röda prickar på kartan.

För musen över prickarna för att se namnen på stationerna.

Klicka sedan för att få väderrapporter och prognoser.

För att ändra kartan: Klicka på de gröna knapparna med ett svart kors på för att zooma in; den gröna knappen med ett streck på för att zooma ut; eller på de gröna pilarna för angränsande kartor.


METAR-TAF: